Time;durP1;ratioP1;P1;durP2;ratioP2;P2;SDS_P1;SDS_P2;PMS_P1;PMS_P2;Temp;Humidity;BMP_temperature;BMP_pressure;BME280_temperature;BME280_humidity;BME280_pressure;Samples;Min_cycle;Max_cycle;Signal;HPM_P1;HPM_P2
2023/04/14 00:01:15;;;;;;;0.47;0.47;;;;;;;12.70;80.38;98602.88;5018203;28;20217;-58
2023/04/14 00:03:42;;;;;;;0.57;0.57;;;;;;;12.73;80.39;98605.28;5018416;28;20788;-58
2023/04/14 00:06:09;;;;;;;0.60;0.60;;;;;;;12.52;80.50;98590.03;5031978;28;20205;-58
2023/04/14 00:08:36;;;;;;;0.60;0.60;;;;;;;12.59;80.90;98604.25;5018506;28;20198;-58
2023/04/14 00:11:02;;;;;;;0.50;0.50;;;;;;;12.62;80.70;98610.97;5028702;28;20224;-59
2023/04/14 00:13:31;;;;;;;0.43;0.43;;;;;;;12.63;79.91;98605.75;5022795;28;20263;-58
2023/04/14 00:15:58;;;;;;;0.60;0.60;;;;;;;12.64;80.38;98601.44;5030039;28;20200;-58
2023/04/14 00:18:25;;;;;;;0.70;0.70;;;;;;;12.53;80.34;98602.00;5025108;28;20300;-58
2023/04/14 00:20:53;;;;;;;0.43;0.43;;;;;;;12.42;80.87;98598.28;5027047;28;20490;-58
2023/04/14 00:23:19;;;;;;;0.70;0.70;;;;;;;12.40;81.18;98602.69;5026361;28;20693;-58
2023/04/14 00:25:46;;;;;;;0.50;0.50;;;;;;;12.31;81.24;98603.97;5022887;28;20666;-58
2023/04/14 00:28:13;;;;;;;0.50;0.50;;;;;;;12.29;82.21;98598.06;5023945;28;20582;-58
2023/04/14 00:30:41;;;;;;;0.40;0.40;;;;;;;12.18;82.32;98605.47;5019972;28;20666;-58
2023/04/14 00:33:08;;;;;;;0.50;0.50;;;;;;;12.10;82.97;98602.47;5018037;28;20633;-58
2023/04/14 00:35:35;;;;;;;0.40;0.40;;;;;;;12.06;83.27;98595.81;5023764;28;20206;-58
2023/04/14 00:38:01;;;;;;;0.50;0.50;;;;;;;11.78;84.02;98582.66;5024326;28;20585;-58
2023/04/14 00:40:30;;;;;;;0.80;0.80;;;;;;;11.84;84.46;98603.72;5020972;28;20467;-58
2023/04/14 00:42:56;;;;;;;0.60;0.60;;;;;;;11.80;84.53;98609.91;5018379;28;20214;-58
2023/04/14 00:45:26;;;;;;;0.43;0.43;;;;;;;11.83;84.62;98606.34;5026380;28;20212;-58
2023/04/14 00:47:55;;;;;;;0.40;0.40;;;;;;;11.78;84.80;98605.75;5022471;28;20764;-58
2023/04/14 00:50:22;;;;;;;0.40;0.40;;;;;;;11.73;85.15;98610.28;5021499;28;20209;-58
2023/04/14 00:52:51;;;;;;;0.47;0.47;;;;;;;11.55;85.53;98581.97;5026829;28;20198;-58
2023/04/14 00:55:19;;;;;;;0.50;0.50;;;;;;;11.74;85.43;98609.38;5022856;28;20225;-58
2023/04/14 00:57:46;;;;;;;0.60;0.60;;;;;;;11.57;86.68;98608.38;5026487;28;20297;-59
2023/04/14 01:00:14;;;;;;;0.70;0.70;;;;;;;11.44;86.84;98607.28;5024768;28;20197;-58
2023/04/14 01:02:41;;;;;;;0.50;0.50;;;;;;;11.42;87.58;98603.97;5024615;28;20232;-58
2023/04/14 01:05:09;;;;;;;0.60;0.60;;;;;;;11.38;87.83;98596.47;5020634;28;20240;-59
2023/04/14 01:07:37;;;;;;;0.70;0.70;;;;;;;11.38;87.93;98591.34;5017984;28;20665;-59
2023/04/14 01:10:06;;;;;;;0.40;0.40;;;;;;;11.40;87.83;98605.78;5022745;28;20632;-58
2023/04/14 01:12:55;;;;;;;0.57;0.57;;;;;;;11.45;88.18;98593.56;5023800;28;20556;-58
2023/04/14 01:15:30;;;;;;;0.50;0.50;;;;;;;11.50;87.57;98591.59;5026384;28;20284;-58
2023/04/14 01:18:05;;;;;;;0.40;0.40;;;;;;;11.50;87.22;98596.75;5027765;28;20212;-58
2023/04/14 01:20:38;;;;;;;0.60;0.60;;;;;;;11.52;87.32;98600.09;5025364;28;20291;-58
2023/04/14 01:23:08;;;;;;;0.73;0.73;;;;;;;11.57;86.74;98593.00;5026121;28;20222;-58
2023/04/14 01:25:57;;;;;;;0.60;0.60;;;;;;;11.69;86.50;98603.59;5022590;28;20197;-59
2023/04/14 01:28:42;;;;;;;0.50;0.50;;;;;;;11.61;86.85;98606.50;5025978;28;20205;-58
2023/04/14 01:31:30;;;;;;;3.30;0.70;;;;;;;11.57;86.93;98600.69;5030207;28;20216;-58
2023/04/14 01:34:06;;;;;;;0.50;0.50;;;;;;;11.55;86.36;98599.94;5020649;28;20202;-58
2023/04/14 01:36:40;;;;;;;0.57;0.57;;;;;;;11.62;86.58;98604.78;5023477;28;20202;-58
2023/04/14 01:39:11;;;;;;;0.50;0.50;;;;;;;11.65;86.43;98604.63;5021241;28;20755;-58
2023/04/14 01:41:42;;;;;;;0.50;0.50;;;;;;;11.64;86.67;98600.41;5027479;28;20217;-58
2023/04/14 01:44:10;;;;;;;0.70;0.70;;;;;;;11.59;86.47;98598.91;5028567;28;20201;-58
2023/04/14 01:46:39;;;;;;;0.43;0.43;;;;;;;11.47;87.24;98602.00;5024505;28;20241;-59
2023/04/14 01:49:06;;;;;;;0.50;0.50;;;;;;;11.51;87.09;98593.28;5017598;28;20198;-58
2023/04/14 01:51:34;;;;;;;0.50;0.50;;;;;;;11.53;87.09;98594.03;5020576;28;20662;-59
2023/04/14 01:54:03;;;;;;;0.53;0.53;;;;;;;11.50;87.28;98586.47;5025762;28;20355;-58
2023/04/14 01:56:32;;;;;;;0.50;0.50;;;;;;;11.40;87.24;98567.31;5020269;28;20267;-59
2023/04/14 01:59:02;;;;;;;0.50;0.50;;;;;;;11.36;87.80;98573.47;5025690;28;20201;-58
2023/04/14 02:01:31;;;;;;;0.50;0.50;;;;;;;11.43;87.37;98590.25;5023507;28;20217;-58
2023/04/14 02:04:01;;;;;;;0.60;0.60;;;;;;;11.37;88.14;98585.38;5019576;28;20244;-58
2023/04/14 02:06:30;;;;;;;0.53;0.53;;;;;;;11.41;87.69;98581.78;5022494;28;20289;-58
2023/04/14 02:08:59;;;;;;;0.50;0.50;;;;;;;11.24;87.94;98558.66;5021119;28;20205;-58
2023/04/14 02:11:28;;;;;;;0.53;0.53;;;;;;;11.03;88.33;98531.41;5025253;28;20202;-58
2023/04/14 02:13:56;;;;;;;0.67;0.67;;;;;;;11.29;88.88;98587.47;5029846;28;20209;-58
2023/04/14 02:16:24;;;;;;;0.40;0.40;;;;;;;11.33;88.67;98586.44;5017337;28;20702;-58
2023/04/14 02:18:51;;;;;;;0.43;0.43;;;;;;;11.39;88.02;98581.03;5027862;28;20288;-58
2023/04/14 02:21:22;;;;;;;0.60;0.60;;;;;;;11.47;87.93;98586.63;5023369;28;20206;-58
2023/04/14 02:23:49;;;;;;;0.60;0.60;;;;;;;11.48;87.72;98578.03;5018389;28;20209;-59
2023/04/14 02:26:21;;;;;;;0.73;0.73;;;;;;;11.62;87.54;98595.34;5023879;28;20197;-59
2023/04/14 02:28:51;;;;;;;0.50;0.50;;;;;;;11.59;86.95;98595.50;5026525;28;20682;-59
2023/04/14 02:31:22;;;;;;;0.70;0.70;;;;;;;11.62;86.67;98595.34;5015397;28;20210;-58
2023/04/14 02:33:54;;;;;;;0.50;0.50;;;;;;;11.61;86.25;98596.25;5018104;28;20202;-58
2023/04/14 02:36:28;;;;;;;0.40;0.40;;;;;;;11.67;86.67;98595.13;5023947;28;20645;-58
2023/04/14 02:38:57;;;;;;;0.80;0.80;;;;;;;11.68;85.84;98591.66;5018550;28;20240;-58
2023/04/14 02:41:26;;;;;;;0.73;0.73;;;;;;;11.66;86.27;98596.03;5021837;28;20264;-58
2023/04/14 02:44:00;;;;;;;0.53;0.53;;;;;;;11.59;86.18;98591.19;5021672;28;20198;-58
2023/04/14 02:46:31;;;;;;;0.40;0.40;;;;;;;11.54;86.23;98597.44;5017655;28;20297;-58
2023/04/14 02:49:01;;;;;;;0.57;0.57;;;;;;;11.54;86.26;98595.69;5020626;28;20640;-57
2023/04/14 02:51:31;;;;;;;0.80;0.80;;;;;;;11.41;86.80;98581.78;5022113;28;20206;-58
2023/04/14 02:53:58;;;;;;;0.40;0.40;;;;;;;11.52;86.04;98600.09;5027446;28;20296;-58
2023/04/14 02:56:26;;;;;;;0.50;0.50;;;;;;;11.42;85.36;98593.72;5022009;28;20622;-58
2023/04/14 02:58:54;;;;;;;0.40;0.40;;;;;;;11.20;86.03;98599.91;5025465;28;20201;-58
2023/04/14 03:01:21;;;;;;;0.60;0.60;;;;;;;11.15;86.97;98602.66;5022223;28;20205;-58
2023/04/14 03:03:49;;;;;;;0.40;0.40;;;;;;;11.09;87.18;98595.25;5023581;28;20225;-58
2023/04/14 03:06:16;;;;;;;0.80;0.80;;;;;;;11.18;86.95;98605.06;5030484;28;20267;-59
2023/04/14 03:08:46;;;;;;;0.40;0.40;;;;;;;11.19;86.59;98606.75;5030735;28;20202;-58
2023/04/14 03:11:14;;;;;;;0.50;0.50;;;;;;;11.13;87.18;98612.16;5030142;28;20197;-58
2023/04/14 03:13:43;;;;;;;0.50;0.50;;;;;;;11.08;87.40;98611.56;5030391;28;20251;-58
2023/04/14 03:16:10;;;;;;;0.70;0.70;;;;;;;11.08;87.36;98609.78;5030462;28;20205;-58
2023/04/14 03:18:38;;;;;;;0.73;0.73;;;;;;;10.87;87.55;98603.06;5030640;28;20201;-58
2023/04/14 03:21:06;;;;;;;0.50;0.50;;;;;;;10.85;88.17;98614.28;5030565;28;20201;-58
2023/04/14 03:23:33;;;;;;;0.60;0.60;;;;;;;10.86;88.71;98609.09;5030171;28;20279;-58
2023/04/14 03:26:03;;;;;;;0.47;0.47;;;;;;;10.86;87.81;98608.25;5030030;28;20267;-58
2023/04/14 03:28:33;;;;;;;0.70;0.70;;;;;;;10.83;87.36;98603.25;5030655;28;20693;-58
2023/04/14 03:31:03;;;;;;;0.67;0.67;;;;;;;10.77;87.71;98598.41;5030110;28;20279;-58
2023/04/14 03:33:32;;;;;;;0.50;0.50;;;;;;;10.79;87.57;98596.63;5030253;28;20289;-58
2023/04/14 03:36:00;;;;;;;0.50;0.50;;;;;;;10.80;87.81;98605.94;5029060;28;20201;-58
2023/04/14 03:38:28;;;;;;;0.50;0.50;;;;;;;10.81;87.62;98590.53;5028409;28;20213;-58
2023/04/14 03:40:58;;;;;;;0.50;0.50;;;;;;;10.73;88.00;98601.97;5030196;28;20225;-58
2023/04/14 03:43:28;;;;;;;0.60;0.60;;;;;;;10.73;88.57;98607.09;5029991;28;20804;-58
2023/04/14 03:45:55;;;;;;;0.60;0.60;;;;;;;10.78;88.38;98610.31;5027735;28;20218;-58
2023/04/14 03:48:25;;;;;;;0.50;0.50;;;;;;;10.56;89.97;98607.88;5029284;28;20625;-59
2023/04/14 03:50:53;;;;;;;0.40;0.40;;;;;;;10.60;90.15;98613.69;5029387;28;20300;-58
2023/04/14 03:53:21;;;;;;;0.50;0.50;;;;;;;10.68;89.92;98615.03;5029730;28;20208;-57
2023/04/14 03:55:50;;;;;;;0.67;0.67;;;;;;;10.68;90.20;98606.50;5029582;28;20198;-59
2023/04/14 03:58:18;;;;;;;0.50;0.50;;;;;;;10.68;90.00;98609.06;5029593;28;20216;-58
2023/04/14 04:00:47;;;;;;;0.60;0.60;;;;;;;10.60;90.99;98618.81;5029463;28;20205;-57
2023/04/14 04:03:15;;;;;;;0.50;0.50;;;;;;;10.53;91.27;98619.06;5028902;28;20589;-58
2023/04/14 04:05:43;;;;;;;0.40;0.40;;;;;;;10.48;91.15;98613.31;5029842;28;20670;-58
2023/04/14 04:08:12;;;;;;;0.60;0.60;;;;;;;10.69;90.82;98637.19;5029697;28;20617;-58
2023/04/14 04:10:41;;;;;;;0.60;0.60;;;;;;;10.78;90.57;98641.94;5029854;28;20674;-58
2023/04/14 04:13:10;;;;;;;0.50;0.50;;;;;;;10.87;90.06;98633.00;5029383;28;20217;-58
2023/04/14 04:15:38;;;;;;;0.50;0.50;;;;;;;10.89;90.17;98632.03;5025917;28;20236;-58
2023/04/14 04:18:07;;;;;;;0.60;0.60;;;;;;;10.90;90.34;98627.72;5029157;28;20705;-57
2023/04/14 04:20:37;;;;;;;0.40;0.40;;;;;;;10.97;90.29;98632.53;5029060;28;20240;-57
2023/04/14 04:23:05;;;;;;;0.60;0.60;;;;;;;10.93;90.08;98627.59;5029290;28;20217;-58
2023/04/14 04:25:33;;;;;;;0.40;0.40;;;;;;;11.14;90.36;98641.22;5029979;28;20626;-58
2023/04/14 04:28:01;;;;;;;0.50;0.50;;;;;;;11.06;90.37;98626.16;5027853;28;20212;-58
2023/04/14 04:30:29;;;;;;;0.67;0.67;;;;;;;11.14;89.98;98625.81;5029108;28;20267;-58
2023/04/14 04:32:56;;;;;;;0.47;0.47;;;;;;;11.41;90.29;98642.53;5027073;28;20662;-58
2023/04/14 04:35:25;;;;;;;0.57;0.57;;;;;;;11.55;89.72;98640.16;5029387;28;20652;-58
2023/04/14 04:37:53;;;;;;;0.50;0.50;;;;;;;11.69;88.63;98642.09;5029454;28;20193;-57
2023/04/14 04:40:20;;;;;;;0.60;0.60;;;;;;;11.80;87.44;98645.03;5031796;28;20713;-58
2023/04/14 04:42:47;;;;;;;0.50;0.50;;;;;;;11.90;86.26;98633.41;5032501;28;20229;-56
2023/04/14 04:45:27;;;;;;;0.57;0.57;;;;;;;11.99;86.51;98631.22;5032676;28;20287;-57
2023/04/14 04:47:54;;;;;;;0.40;0.40;;;;;;;12.11;86.59;98637.53;5033107;28;20205;-57
2023/04/14 04:50:20;;;;;;;0.50;0.50;;;;;;;12.17;85.87;98637.22;5033440;28;20288;-56
2023/04/14 04:52:49;;;;;;;0.60;0.60;;;;;;;12.15;86.08;98633.88;5033030;28;20684;-56
2023/04/14 04:55:16;;;;;;;0.50;0.50;;;;;;;12.21;84.98;98628.47;5033036;28;20205;-56
2023/04/14 04:57:42;;;;;;;0.50;0.50;;;;;;;12.16;84.52;98627.84;5032762;28;20205;-57
2023/04/14 05:00:10;;;;;;;0.63;0.63;;;;;;;12.17;85.10;98626.97;5032677;28;20209;-57
2023/04/14 05:02:37;;;;;;;0.50;0.50;;;;;;;12.16;84.45;98612.44;5032781;28;20315;-58
2023/04/14 05:05:04;;;;;;;0.60;0.60;;;;;;;12.05;86.12;98609.56;5023841;28;20660;-57
2023/04/14 05:07:30;;;;;;;0.50;0.50;;;;;;;12.06;86.90;98614.63;5025220;28;20201;-56
2023/04/14 05:09:58;;;;;;;0.50;0.50;;;;;;;11.96;88.14;98604.84;5027037;28;20627;-57
2023/04/14 05:12:25;;;;;;;0.50;0.50;;;;;;;11.95;87.79;98603.22;5025286;28;20279;-57
2023/04/14 05:14:52;;;;;;;0.60;0.60;;;;;;;12.06;87.20;98619.75;5025760;28;20594;-57
2023/04/14 05:17:19;;;;;;;0.40;0.40;;;;;;;12.08;87.02;98599.94;5022735;28;20259;-58
2023/04/14 05:19:45;;;;;;;0.50;0.50;;;;;;;11.99;88.20;98585.00;5026660;28;20272;-56
2023/04/14 05:22:15;;;;;;;0.40;0.40;;;;;;;12.00;88.45;98606.38;5027973;28;20271;-56
2023/04/14 05:24:48;;;;;;;0.43;0.43;;;;;;;12.01;88.63;98619.16;5027611;28;20567;-57
2023/04/14 05:27:16;;;;;;;0.73;0.73;;;;;;;11.85;88.47;98599.44;5021912;28;20705;-57
2023/04/14 05:29:43;;;;;;;0.43;0.43;;;;;;;11.93;89.62;98607.56;5028302;28;20674;-57
2023/04/14 05:32:11;;;;;;;1.23;0.90;;;;;;;11.89;90.18;98595.81;5021522;28;20201;-57
2023/04/14 05:34:38;;;;;;;0.70;0.70;;;;;;;11.94;90.53;98591.28;5020336;28;20194;-57
2023/04/14 05:37:05;;;;;;;0.50;0.50;;;;;;;11.89;90.38;98608.66;5025094;28;20197;-57
2023/04/14 05:39:32;;;;;;;0.50;0.50;;;;;;;11.93;90.20;98612.72;5026511;28;20201;-57
2023/04/14 05:42:00;;;;;;;0.50;0.50;;;;;;;11.94;89.73;98611.81;5024497;28;20217;-57
2023/04/14 05:44:28;;;;;;;0.70;0.70;;;;;;;11.94;89.03;98622.09;5024935;28;20229;-57
2023/04/14 05:46:55;;;;;;;0.57;0.57;;;;;;;11.93;89.91;98610.16;5026454;28;20692;-57
2023/04/14 05:49:21;;;;;;;0.60;0.60;;;;;;;11.96;90.15;98615.97;5028470;28;20205;-57
2023/04/14 05:51:48;;;;;;;0.40;0.40;;;;;;;11.83;91.44;98596.06;5024259;28;20297;-58
2023/04/14 05:54:15;;;;;;;0.63;0.63;;;;;;;11.87;91.54;98587.34;5026017;28;20207;-57
2023/04/14 05:56:42;;;;;;;0.50;0.50;;;;;;;11.85;92.54;98586.59;5023570;28;20204;-58
2023/04/14 05:59:08;;;;;;;0.57;0.57;;;;;;;11.92;92.57;98593.09;5025643;28;20221;-58
2023/04/14 06:01:36;;;;;;;0.43;0.43;;;;;;;11.95;92.24;98567.25;5021111;28;20446;-58
2023/04/14 06:04:03;;;;;;;0.60;0.60;;;;;;;12.31;90.81;98585.97;5019459;28;20233;-58
2023/04/14 06:06:31;;;;;;;0.40;0.40;;;;;;;12.43;90.83;98580.25;5019759;28;20455;-58
2023/04/14 06:08:58;;;;;;;0.50;0.50;;;;;;;12.59;88.78;98586.25;5024584;28;20244;-58
2023/04/14 06:11:24;;;;;;;0.40;0.40;;;;;;;12.52;87.06;98590.03;5022035;28;20206;-58
2023/04/14 06:13:51;;;;;;;0.50;0.50;;;;;;;12.42;86.66;98588.00;5024053;28;20189;-58
2023/04/14 06:16:18;;;;;;;0.50;0.50;;;;;;;12.49;86.31;98595.34;5017978;28;20755;-59
2023/04/14 06:18:46;;;;;;;0.57;0.57;;;;;;;12.56;87.75;98596.69;5029225;28;20209;-58
2023/04/14 06:21:13;;;;;;;0.60;0.60;;;;;;;12.52;86.98;98577.19;5020574;28;20264;-58
2023/04/14 06:23:40;;;;;;;0.60;0.60;;;;;;;12.47;87.40;98581.72;5019961;28;20689;-58
2023/04/14 06:26:07;;;;;;;0.57;0.57;;;;;;;12.57;87.77;98588.06;5019676;28;20210;-58
2023/04/14 06:28:33;;;;;;;0.40;0.40;;;;;;;12.72;87.19;98590.75;5025510;28;20206;-58
2023/04/14 06:31:00;;;;;;;0.40;0.40;;;;;;;12.88;87.02;98586.50;5026759;28;20259;-58
2023/04/14 06:33:27;;;;;;;0.80;0.80;;;;;;;12.94;85.18;98583.59;5023211;28;20260;-58
2023/04/14 06:35:55;;;;;;;0.60;0.60;;;;;;;12.99;85.38;98579.03;5022814;28;20761;-58
2023/04/14 06:38:23;;;;;;;0.50;0.50;;;;;;;13.03;85.29;98576.22;5022416;28;20216;-58
2023/04/14 06:40:50;;;;;;;0.50;0.50;;;;;;;13.15;86.76;98579.91;5021994;28;20205;-58
2023/04/14 06:43:17;;;;;;;0.50;0.50;;;;;;;13.23;83.52;98577.75;5022045;28;20304;-58
2023/04/14 06:45:44;;;;;;;0.63;0.63;;;;;;;13.28;82.31;98575.75;5021994;28;20649;-58
2023/04/14 06:48:12;;;;;;;0.43;0.43;;;;;;;13.21;81.51;98574.44;5022435;28;20292;-58
2023/04/14 06:50:38;;;;;;;0.60;0.60;;;;;;;13.22;81.02;98576.09;5020095;28;20206;-59
2023/04/14 06:53:08;;;;;;;0.83;0.83;;;;;;;13.22;82.31;98573.50;5022514;28;20203;-58
2023/04/14 06:55:35;;;;;;;0.50;0.50;;;;;;;13.35;81.24;98569.38;5022600;28;20205;-58
2023/04/14 06:58:02;;;;;;;0.60;0.60;;;;;;;13.49;81.52;98574.59;5024042;28;20252;-59
2023/04/14 07:00:29;;;;;;;0.47;0.47;;;;;;;13.65;81.94;98562.53;5025259;28;20217;-58
2023/04/14 07:02:56;;;;;;;0.40;0.40;;;;;;;13.80;80.11;98560.00;5023990;28;20202;-58
2023/04/14 07:05:23;;;;;;;0.70;0.70;;;;;;;13.74;79.02;98552.63;5028650;28;20217;-58
2023/04/14 07:07:50;;;;;;;0.60;0.60;;;;;;;13.82;80.81;98547.88;5028965;28;20201;-58
2023/04/14 07:10:18;;;;;;;0.50;0.50;;;;;;;14.00;80.47;98549.41;5029398;28;20205;-58
2023/04/14 07:12:45;;;;;;;0.50;0.50;;;;;;;14.06;77.98;98549.03;5028449;28;20216;-58
2023/04/14 07:15:13;;;;;;;0.60;0.60;;;;;;;14.15;78.28;98533.88;5027971;28;20279;-58
2023/04/14 07:17:40;;;;;;;0.40;0.40;;;;;;;14.17;77.90;98534.63;5028766;28;20298;-58
2023/04/14 07:20:08;;;;;;;0.40;0.40;;;;;;;14.27;78.27;98531.50;5029052;28;20201;-58
2023/04/14 07:22:34;;;;;;;0.77;0.77;;;;;;;14.29;77.32;98533.06;5028850;28;20225;-58
2023/04/14 07:25:01;;;;;;;0.40;0.40;;;;;;;14.39;78.11;98521.31;5028488;28;20217;-58
2023/04/14 07:27:30;;;;;;;0.50;0.50;;;;;;;14.39;78.94;98508.44;5029411;28;20245;-58
2023/04/14 07:29:57;;;;;;;0.80;0.80;;;;;;;14.59;80.01;98525.28;5029065;28;20281;-58
2023/04/14 07:32:24;;;;;;;0.50;0.50;;;;;;;14.66;78.87;98514.53;5029234;28;20700;-58
2023/04/14 07:34:51;;;;;;;0.50;0.50;;;;;;;14.69;80.26;98509.19;5026409;28;20754;-58
2023/04/14 07:37:19;;;;;;;1.07;0.97;;;;;;;14.71;80.91;98522.81;5026322;28;20976;-58
2023/04/14 07:39:46;;;;;;;0.43;0.43;;;;;;;14.84;81.86;98527.22;5028425;28;20201;-57
2023/04/14 07:42:13;;;;;;;0.90;0.90;;;;;;;14.69;80.36;98498.03;5028637;28;20199;-58
2023/04/14 07:44:41;;;;;;;0.40;0.40;;;;;;;14.58;81.85;98485.78;5024846;28;20218;-58
2023/04/14 07:47:08;;;;;;;0.50;0.50;;;;;;;14.63;82.71;98503.56;5029274;28;20264;-58
2023/04/14 07:49:35;;;;;;;0.60;0.60;;;;;;;14.69;83.68;98505.75;5029851;28;20686;-58
2023/04/14 07:52:02;;;;;;;0.50;0.50;;;;;;;14.77;83.83;98500.13;5028498;28;20280;-59
2023/04/14 07:54:30;;;;;;;0.40;0.40;;;;;;;14.63;82.78;98491.50;5028554;28;20284;-58
2023/04/14 07:56:56;;;;;;;0.53;0.53;;;;;;;14.67;83.23;98480.06;5028546;28;20641;-58
2023/04/14 07:59:23;;;;;;;0.87;0.87;;;;;;;14.61;84.13;98459.78;5029580;28;20259;-58
2023/04/14 08:01:51;;;;;;;0.90;0.90;;;;;;;14.65;84.07;98461.28;5029145;28;20209;-58
2023/04/14 08:04:18;;;;;;;0.50;0.50;;;;;;;14.66;84.14;98452.63;5023335;28;20291;-58
2023/04/14 08:06:45;;;;;;;0.57;0.57;;;;;;;14.70;84.32;98448.09;5017290;28;20204;-58
2023/04/14 08:09:13;;;;;;;0.50;0.50;;;;;;;14.68;84.46;98455.91;5023344;28;20689;-58
2023/04/14 08:11:40;;;;;;;0.40;0.40;;;;;;;14.76;83.95;98464.94;5021926;28;20201;-58
2023/04/14 08:14:07;;;;;;;0.60;0.60;;;;;;;14.73;84.30;98467.72;5020041;28;20206;-58
2023/04/14 08:16:35;;;;;;;0.50;0.50;;;;;;;14.90;84.07;98483.78;5025004;28;20205;-57
2023/04/14 08:19:03;;;;;;;0.60;0.60;;;;;;;14.97;84.30;98492.81;5021811;28;20215;-57
2023/04/14 08:21:30;;;;;;;0.60;0.60;;;;;;;14.98;83.37;98498.81;5025116;28;20655;-58
2023/04/14 08:23:57;;;;;;;0.50;0.50;;;;;;;14.98;82.74;98491.06;5025604;28;20294;-58
2023/04/14 08:26:26;;;;;;;1.40;0.90;;;;;;;15.01;82.81;98493.44;5027971;28;20206;-58
2023/04/14 08:28:52;;;;;;;0.40;0.40;;;;;;;15.10;83.04;98498.88;5021098;28;20200;-58
2023/04/14 08:31:23;;;;;;;0.63;0.63;;;;;;;15.20;83.60;98509.44;5024097;28;20263;-58
2023/04/14 08:33:51;;;;;;;0.70;0.70;;;;;;;15.14;82.56;98482.28;5026400;28;20640;-57
2023/04/14 08:36:26;;;;;;;0.53;0.53;;;;;;;15.39;82.61;98499.59;5026640;28;20724;-58
2023/04/14 08:38:53;;;;;;;0.50;0.50;;;;;;;15.42;81.72;98489.06;5021156;28;20204;-58
2023/04/14 08:41:20;;;;;;;0.30;0.30;;;;;;;15.44;82.07;98495.00;5020096;28;20642;-58
2023/04/14 08:43:47;;;;;;;0.60;0.60;;;;;;;15.54;82.58;98482.34;5023744;28;20307;-57
2023/04/14 08:46:14;;;;;;;0.33;0.33;;;;;;;15.68;81.87;98483.09;5022980;28;20205;-58
2023/04/14 08:48:45;;;;;;;0.50;0.50;;;;;;;15.89;82.14;98467.09;5018368;28;20213;-58
2023/04/14 08:51:21;;;;;;;0.47;0.47;;;;;;;16.10;81.02;98483.75;5025072;28;20209;-59
2023/04/14 08:53:51;;;;;;;0.50;0.50;;;;;;;16.45;80.87;98481.34;5027300;28;20262;-59
2023/04/14 08:56:20;;;;;;;0.60;0.60;;;;;;;16.81;81.08;98478.84;5026974;28;20709;-59
2023/04/14 08:58:47;;;;;;;0.50;0.50;;;;;;;17.22;78.14;98486.31;5025800;28;20194;-60
2023/04/14 09:01:15;;;;;;;3.50;1.27;;;;;;;17.38;74.43;98486.03;5018577;28;20631;-59
2023/04/14 09:03:43;;;;;;;2.20;0.80;;;;;;;17.52;76.72;98470.28;5026032;28;20693;-59
2023/04/14 09:06:10;;;;;;;0.43;0.43;;;;;;;17.46;74.77;98462.97;5033059;28;20201;-59
2023/04/14 09:08:38;;;;;;;0.53;0.53;;;;;;;17.50;75.55;98467.81;5033382;28;20279;-60
2023/04/14 09:11:06;;;;;;;0.50;0.50;;;;;;;17.55;76.21;98463.13;5032619;28;20558;-59
2023/04/14 09:13:34;;;;;;;0.70;0.70;;;;;;;17.55;76.83;98445.00;5033003;28;20201;-59
2023/04/14 09:16:02;;;;;;;0.50;0.50;;;;;;;17.61;76.55;98439.38;5032427;28;20212;-59
2023/04/14 09:18:30;;;;;;;0.50;0.50;;;;;;;17.72;76.85;98436.81;5031086;28;20658;-59
2023/04/14 09:20:57;;;;;;;0.77;0.77;;;;;;;17.96;77.13;98428.16;5030280;28;20767;-60
2023/04/14 09:23:25;;;;;;;0.50;0.50;;;;;;;18.13;76.71;98399.13;5032034;28;20289;-60
2023/04/14 09:25:52;;;;;;;1.03;1.03;;;;;;;18.21;76.05;98396.78;5030988;28;20293;-60
2023/04/14 09:28:20;;;;;;;0.50;0.50;;;;;;;18.45;75.59;98392.28;5032042;28;20217;-59
2023/04/14 09:30:47;;;;;;;1.17;1.17;;;;;;;18.61;75.87;98399.75;5030667;28;20255;-61
2023/04/14 09:33:23;;;;;;;0.70;0.70;;;;;;;18.75;75.08;98376.94;5031640;28;20233;-59
2023/04/14 09:35:51;;;;;;;0.40;0.40;;;;;;;19.20;74.99;98397.56;5032460;28;20267;-60
2023/04/14 09:38:32;;;;;;;0.60;0.60;;;;;;;19.37;74.87;98389.22;5031360;28;20213;-60
2023/04/14 09:41:00;;;;;;;0.40;0.40;;;;;;;19.67;75.00;98381.53;5030101;28;20689;-59
2023/04/14 09:43:29;;;;;;;0.47;0.47;;;;;;;19.75;74.89;98373.91;5031135;28;20267;-60
2023/04/14 09:45:57;;;;;;;0.60;0.60;;;;;;;19.69;74.17;98381.38;5031885;28;20669;-57
2023/04/14 09:48:24;;;;;;;0.80;0.80;;;;;;;19.73;74.95;98372.38;5030831;28;20210;-57
2023/04/14 09:51:04;;;;;;;0.40;0.40;;;;;;;19.70;73.70;98365.66;5031279;28;20193;-57
2023/04/14 09:53:32;;;;;;;0.47;0.47;;;;;;;19.75;74.92;98362.66;5030321;28;20456;-58
2023/04/14 09:56:02;;;;;;;0.40;0.40;;;;;;;20.25;73.29;98368.78;5026819;28;20888;-59
2023/04/14 09:58:31;;;;;;;0.50;0.50;;;;;;;20.38;71.08;98361.59;5031061;28;20220;-58
2023/04/14 10:00:59;;;;;;;0.50;0.50;;;;;;;20.58;71.28;98352.88;5029652;28;20578;-59
2023/04/14 10:03:34;;;;;;;0.50;0.50;;;;;;;20.57;71.59;98346.03;5029243;28;20239;-59
2023/04/14 10:06:03;;;;;;;1.10;1.10;;;;;;;20.66;70.86;98347.81;5029692;28;20201;-58
2023/04/14 10:08:37;;;;;;;0.43;0.43;;;;;;;20.67;69.80;98336.47;5029977;28;20243;-59
2023/04/14 10:11:19;;;;;;;0.50;0.50;;;;;;;20.68;70.65;98342.50;5029733;28;20204;-59
2023/04/14 10:13:48;;;;;;;1.00;1.00;;;;;;;20.55;70.24;98311.47;5028818;28;20227;-58
2023/04/14 10:16:15;;;;;;;0.40;0.40;;;;;;;20.53;70.10;98331.63;5029064;28;20258;-59
2023/04/14 10:18:43;;;;;;;0.40;0.40;;;;;;;20.50;70.37;98331.91;5029602;28;20207;-59
2023/04/14 10:21:10;;;;;;;0.50;0.50;;;;;;;20.60;72.09;98324.94;5031108;28;20269;-58
2023/04/14 10:23:38;;;;;;;0.40;0.40;;;;;;;20.66;68.21;98329.59;5030855;28;20251;-60
2023/04/14 10:26:06;;;;;;;0.67;0.67;;;;;;;20.67;69.52;98325.22;5030631;28;20317;-59
2023/04/14 10:28:34;;;;;;;0.63;0.63;;;;;;;20.71;69.00;98335.22;5030520;28;20212;-59
2023/04/14 10:31:04;;;;;;;0.40;0.40;;;;;;;20.84;69.42;98348.00;5030644;28;20728;-59
2023/04/14 10:33:31;;;;;;;0.70;0.70;;;;;;;20.99;67.83;98332.78;5030659;28;20227;-59
2023/04/14 10:36:00;;;;;;;0.50;0.50;;;;;;;21.19;66.23;98337.06;5029877;28;20204;-59
2023/04/14 10:38:41;;;;;;;0.57;0.57;;;;;;;21.24;66.04;98355.69;5029522;28;20212;-59
2023/04/14 10:41:10;;;;;;;0.53;0.53;;;;;;;21.26;68.62;98366.81;5029124;28;20240;-59
2023/04/14 10:43:37;;;;;;;0.80;0.80;;;;;;;21.19;65.25;98352.69;5030200;28;20208;-59
2023/04/14 10:46:07;;;;;;;0.50;0.50;;;;;;;21.36;68.26;98359.78;5030626;28;20251;-58
2023/04/14 10:48:36;;;;;;;0.53;0.53;;;;;;;21.50;65.47;98356.75;5029924;28;20236;-59
2023/04/14 10:51:04;;;;;;;0.90;0.90;;;;;;;21.69;64.71;98366.31;5030550;28;20286;-59
2023/04/14 10:53:37;;;;;;;0.30;0.30;;;;;;;21.92;65.19;98368.50;5030540;28;20298;-59
2023/04/14 10:56:06;;;;;;;0.40;0.40;;;;;;;22.06;65.87;98374.22;5028916;28;20650;-59
2023/04/14 10:58:36;;;;;;;0.40;0.40;;;;;;;22.25;64.72;98358.47;5030830;28;20201;-60
2023/04/14 11:01:22;;;;;;;0.50;0.50;;;;;;;22.49;63.93;98356.97;5030716;28;20287;-59
2023/04/14 11:03:50;;;;;;;0.30;0.30;;;;;;;22.67;62.02;98362.25;5030220;28;20236;-59
2023/04/14 11:06:50;;;;;;;0.40;0.40;;;;;;;22.62;60.91;98355.81;5029970;28;20304;-59
2023/04/14 11:09:42;;;;;;;0.40;0.40;;;;;;;22.75;61.65;98354.50;5030029;28;20297;-60
2023/04/14 11:12:23;;;;;;;0.73;0.73;;;;;;;22.82;60.74;98346.88;5010223;28;20205;-59
2023/04/14 11:14:55;;;;;;;0.20;0.20;;;;;;;22.81;59.77;98351.28;5030225;28;20577;-59
2023/04/14 11:17:23;;;;;;;0.50;0.50;;;;;;;22.76;61.08;98332.63;5026085;28;20291;-60
2023/04/14 11:19:54;;;;;;;0.30;0.30;;;;;;;22.76;60.30;98334.41;5030021;28;20201;-59
2023/04/14 11:22:40;;;;;;;0.87;0.47;;;;;;;22.65;60.86;98313.72;5028817;28;20262;-59
2023/04/14 11:25:08;;;;;;;0.40;0.40;;;;;;;22.76;60.57;98290.81;5029484;28;20221;-59
2023/04/14 11:27:38;;;;;;;0.70;0.70;;;;;;;22.83;57.20;98318.00;5030096;28;20292;-59
2023/04/14 11:30:07;;;;;;;0.30;0.30;;;;;;;22.94;56.36;98322.19;5029387;28;20205;-59
2023/04/14 11:32:47;;;;;;;0.40;0.40;;;;;;;23.04;53.80;98309.03;5030029;28;20201;-59
2023/04/14 11:35:14;;;;;;;0.50;0.50;;;;;;;23.16;54.51;98320.91;5029409;28;20213;-60
2023/04/14 11:37:41;;;;;;;0.40;0.40;;;;;;;23.25;53.94;98327.81;5029603;28;20217;-59
2023/04/14 11:40:11;;;;;;;0.30;0.30;;;;;;;23.41;54.32;98307.88;5029951;28;20645;-59
2023/04/14 11:42:37;;;;;;;0.40;0.40;;;;;;;23.56;52.72;98315.97;5030446;28;20285;-59